createdAt,value
2023-01-20T00:01:12.176Z,7.75
2023-01-20T00:03:41.976Z,7.65
2023-01-20T00:06:10.640Z,6.95
2023-01-20T00:08:38.816Z,7.05
2023-01-20T00:11:07.638Z,7.18
2023-01-20T00:13:35.719Z,8.13
2023-01-20T00:16:04.484Z,7.22
2023-01-20T00:18:33.402Z,7.18
2023-01-20T00:21:05.520Z,7.20
2023-01-20T00:23:33.835Z,7.90
2023-01-20T00:26:05.863Z,8.40
2023-01-20T00:28:33.871Z,6.43
2023-01-20T00:31:12.113Z,7.47
2023-01-20T00:33:39.947Z,6.43
2023-01-20T00:36:09.848Z,6.55
2023-01-20T00:38:37.851Z,6.68
2023-01-20T00:41:05.894Z,7.13
2023-01-20T00:43:33.879Z,6.95
2023-01-20T00:46:02.077Z,6.47
2023-01-20T00:48:29.970Z,7.28
2023-01-20T00:50:57.759Z,6.45
2023-01-20T00:53:26.960Z,6.30
2023-01-20T00:55:54.934Z,6.47
2023-01-20T00:58:22.784Z,7.78
2023-01-20T01:00:51.803Z,7.28
2023-01-20T01:03:19.974Z,6.95
2023-01-20T01:05:48.199Z,7.15
2023-01-20T01:08:16.470Z,7.10
2023-01-20T01:10:45.664Z,6.78
2023-01-20T01:13:13.517Z,6.95
2023-01-20T01:15:41.361Z,7.10
2023-01-20T01:18:09.115Z,7.30
2023-01-20T01:20:40.349Z,7.30
2023-01-20T01:23:08.131Z,7.10
2023-01-20T01:25:35.895Z,7.45
2023-01-20T01:28:06.977Z,7.60
2023-01-20T01:30:34.869Z,7.65
2023-01-20T01:33:02.611Z,7.72
2023-01-20T01:35:30.430Z,7.50
2023-01-20T01:37:58.449Z,7.20
2023-01-20T01:40:26.276Z,6.97
2023-01-20T01:42:54.038Z,7.68
2023-01-20T01:45:29.472Z,7.15
2023-01-20T01:48:02.510Z,7.53
2023-01-20T01:50:36.244Z,7.38
2023-01-20T01:53:04.398Z,6.97
2023-01-20T01:55:35.963Z,5.70
2023-01-20T01:58:06.783Z,5.97
2023-01-20T02:00:36.077Z,5.03
2023-01-20T02:03:04.083Z,5.38
2023-01-20T02:05:32.154Z,4.85
2023-01-20T02:08:00.572Z,6.57
2023-01-20T02:10:28.532Z,5.85
2023-01-20T02:12:56.391Z,5.50
2023-01-20T02:15:29.050Z,5.45
2023-01-20T02:18:21.550Z,5.38
2023-01-20T02:21:23.779Z,5.20
2023-01-20T02:27:09.298Z,5.13
2023-01-20T02:30:09.201Z,6.00
2023-01-20T02:32:48.172Z,5.10
2023-01-20T02:35:25.759Z,5.28
2023-01-20T02:38:04.755Z,5.38
2023-01-20T02:40:40.163Z,5.22
2023-01-20T02:43:12.877Z,5.45
2023-01-20T02:45:49.075Z,5.53
2023-01-20T02:48:25.657Z,5.88
2023-01-20T02:51:01.415Z,5.13
2023-01-20T02:53:37.330Z,5.25
2023-01-20T02:56:06.370Z,5.72
2023-01-20T02:58:40.733Z,5.63
2023-01-20T03:01:13.448Z,5.72
2023-01-20T03:03:46.982Z,5.00
2023-01-20T03:06:19.954Z,5.93
2023-01-20T03:08:52.409Z,5.32
2023-01-20T03:11:21.040Z,5.47
2023-01-20T03:13:54.936Z,6.25
2023-01-20T03:16:25.256Z,5.78
2023-01-20T03:18:55.754Z,5.55
2023-01-20T03:21:24.347Z,5.97
2023-01-20T03:23:54.457Z,6.32
2023-01-20T03:26:24.050Z,5.70
2023-01-20T03:28:52.253Z,6.25
2023-01-20T03:31:25.165Z,6.72
2023-01-20T03:33:58.685Z,6.55
2023-01-20T03:36:29.074Z,5.90
2023-01-20T03:38:58.643Z,5.95
2023-01-20T03:41:36.555Z,5.70
2023-01-20T03:44:12.455Z,5.68
2023-01-20T03:46:47.276Z,5.28
2023-01-20T03:49:25.592Z,5.78
2023-01-20T03:52:01.986Z,5.90
2023-01-20T03:54:36.570Z,9.80
2023-01-20T03:57:09.423Z,5.80
2023-01-20T03:59:39.954Z,6.22
2023-01-20T04:02:09.366Z,5.80
2023-01-20T04:04:41.847Z,5.70
2023-01-20T04:07:13.549Z,6.30
2023-01-20T04:09:46.271Z,6.65
2023-01-20T04:12:14.701Z,6.15
2023-01-20T04:14:42.522Z,6.70
2023-01-20T04:17:11.007Z,6.32
2023-01-20T04:19:40.467Z,5.97
2023-01-20T04:22:13.487Z,6.32
2023-01-20T04:24:46.660Z,7.07
2023-01-20T04:27:14.815Z,6.63
2023-01-20T04:29:42.949Z,6.95
2023-01-20T04:32:12.465Z,6.45
2023-01-20T04:34:41.781Z,6.65
2023-01-20T04:37:09.591Z,6.13
2023-01-20T04:39:37.679Z,7.28
2023-01-20T04:42:05.547Z,6.32
2023-01-20T04:44:33.367Z,5.90
2023-01-20T04:47:01.161Z,6.20
2023-01-20T04:49:29.306Z,5.97
2023-01-20T04:51:59.873Z,5.57
2023-01-20T04:54:27.745Z,5.75
2023-01-20T04:56:55.577Z,5.78
2023-01-20T04:59:23.831Z,5.07
2023-01-20T05:01:51.751Z,5.80
2023-01-20T05:04:19.857Z,5.55
2023-01-20T05:06:47.705Z,6.20
2023-01-20T05:09:18.187Z,6.68
2023-01-20T05:11:45.946Z,6.53
2023-01-20T05:14:14.325Z,5.90
2023-01-20T05:16:42.963Z,6.55
2023-01-20T05:19:12.151Z,6.43
2023-01-20T05:21:40.285Z,6.40
2023-01-20T05:24:08.344Z,6.82
2023-01-20T05:26:37.430Z,6.20
2023-01-20T05:29:05.382Z,7.18
2023-01-20T05:31:33.292Z,6.47
2023-01-20T05:34:01.053Z,5.82
2023-01-20T05:36:29.383Z,5.80
2023-01-20T05:38:57.162Z,6.75
2023-01-20T05:41:24.999Z,5.70
2023-01-20T05:43:55.646Z,5.80
2023-01-20T05:46:23.890Z,6.03
2023-01-20T05:48:51.734Z,6.55
2023-01-20T05:51:19.857Z,6.57
2023-01-20T05:53:47.660Z,6.05
2023-01-20T05:56:16.246Z,6.63
2023-01-20T05:58:44.080Z,6.45
2023-01-20T06:01:15.011Z,6.53
2023-01-20T06:03:43.347Z,6.43
2023-01-20T06:06:15.644Z,6.03
2023-01-20T06:08:43.955Z,5.80
2023-01-20T06:11:11.942Z,6.13
2023-01-20T06:13:40.130Z,5.95
2023-01-20T06:16:08.729Z,6.55
2023-01-20T06:18:37.979Z,6.20
2023-01-20T06:21:06.101Z,5.90
2023-01-20T06:23:33.890Z,6.38
2023-01-20T06:26:03.040Z,6.50
2023-01-20T06:28:32.890Z,6.28
2023-01-20T06:31:02.324Z,6.82
2023-01-20T06:33:30.487Z,7.40
2023-01-20T06:36:00.205Z,5.97
2023-01-20T06:38:30.107Z,6.20
2023-01-20T06:40:58.940Z,7.57
2023-01-20T06:43:26.783Z,8.32
2023-01-20T06:45:54.605Z,7.35
2023-01-20T06:48:22.447Z,7.00
2023-01-20T06:50:50.306Z,5.63
2023-01-20T06:53:19.486Z,6.22
2023-01-20T06:55:56.503Z,6.32
2023-01-20T06:58:25.584Z,7.32
2023-01-20T07:00:53.745Z,6.90
2023-01-20T07:03:21.580Z,7.07
2023-01-20T07:05:57.004Z,7.47
2023-01-20T07:08:26.160Z,7.75
2023-01-20T07:10:53.937Z,7.60
2023-01-20T07:13:21.732Z,7.15
2023-01-20T07:15:49.678Z,6.60
2023-01-20T07:18:17.475Z,6.43
2023-01-20T07:20:45.205Z,6.88
2023-01-20T07:23:12.996Z,6.32
2023-01-20T07:25:42.196Z,6.57
2023-01-20T07:28:10.315Z,6.50
2023-01-20T07:30:38.086Z,5.88
2023-01-20T07:33:06.008Z,5.38
2023-01-20T07:35:52.845Z,6.18
2023-01-20T07:38:20.689Z,6.75
2023-01-20T07:40:49.865Z,6.90
2023-01-20T07:43:17.609Z,6.18
2023-01-20T07:45:45.340Z,6.38
2023-01-20T07:48:13.074Z,5.68
2023-01-20T07:50:40.845Z,5.93
2023-01-20T07:53:08.755Z,5.45
2023-01-20T07:55:36.536Z,4.72
2023-01-20T07:58:05.696Z,4.68
2023-01-20T08:00:33.523Z,5.03
2023-01-20T08:03:01.276Z,17.80
2023-01-20T08:05:29.024Z,7.22
2023-01-20T08:07:56.784Z,5.53
2023-01-20T08:10:24.668Z,5.57
2023-01-20T08:12:52.583Z,4.68
2023-01-20T08:15:21.798Z,5.82
2023-01-20T08:17:54.606Z,5.03
2023-01-20T08:20:22.757Z,4.53
2023-01-20T08:22:50.562Z,4.72
2023-01-20T08:25:18.326Z,4.32
2023-01-20T08:27:48.509Z,4.78
2023-01-20T08:30:16.735Z,4.18
2023-01-20T08:32:45.846Z,4.60
2023-01-20T08:35:14.019Z,4.38
2023-01-20T08:37:41.994Z,4.15
2023-01-20T08:40:11.571Z,4.45
2023-01-20T08:42:40.057Z,4.65
2023-01-20T08:45:09.965Z,3.92
2023-01-20T08:47:38.277Z,4.65
2023-01-20T08:50:08.678Z,4.28
2023-01-20T08:52:36.412Z,4.50
2023-01-20T08:55:04.245Z,4.00
2023-01-20T08:57:32.050Z,4.80
2023-01-20T08:59:59.829Z,4.00
2023-01-20T09:02:27.917Z,4.35
2023-01-20T09:04:55.675Z,3.90
2023-01-20T09:07:24.843Z,4.35
2023-01-20T09:09:52.615Z,4.07
2023-01-20T09:12:20.358Z,4.57
2023-01-20T09:14:48.157Z,4.47
2023-01-20T09:17:16.211Z,4.50
2023-01-20T09:19:44.019Z,4.85
2023-01-20T09:22:12.066Z,4.80
2023-01-20T09:24:41.432Z,4.32
2023-01-20T09:27:09.317Z,4.68
2023-01-20T09:29:37.101Z,5.80
2023-01-20T09:32:05.276Z,5.32
2023-01-20T09:34:34.224Z,4.70
2023-01-20T09:37:23.315Z,4.57
2023-01-20T09:40:09.891Z,4.15
2023-01-20T09:43:07.852Z,4.05
2023-01-20T09:45:39.901Z,4.10
2023-01-20T09:48:28.281Z,5.07
2023-01-20T09:51:22.044Z,4.82
2023-01-20T09:53:55.616Z,4.18
2023-01-20T09:56:27.074Z,5.32
2023-01-20T09:59:00.267Z,4.90
2023-01-20T10:01:35.854Z,4.53
2023-01-20T10:04:10.667Z,3.97
2023-01-20T10:06:45.705Z,5.25
2023-01-20T10:09:23.450Z,5.07
2023-01-20T10:11:57.229Z,5.28
2023-01-20T10:14:30.838Z,4.53
2023-01-20T10:17:06.618Z,5.13
2023-01-20T10:19:39.941Z,4.53
2023-01-20T10:22:12.955Z,7.57
2023-01-20T10:24:48.899Z,6.03
2023-01-20T10:27:18.012Z,5.80
2023-01-20T10:29:50.824Z,5.20
2023-01-20T10:32:30.938Z,5.53
2023-01-20T10:35:00.695Z,5.68
2023-01-20T10:37:30.785Z,5.88
2023-01-20T10:40:07.449Z,5.35
2023-01-20T10:42:36.624Z,5.72
2023-01-20T10:45:04.657Z,6.03
2023-01-20T10:47:44.826Z,6.47
2023-01-20T10:50:41.946Z,5.65
2023-01-20T10:53:29.275Z,5.60
2023-01-20T10:56:26.907Z,6.15
2023-01-20T10:58:57.820Z,6.72
2023-01-20T11:01:26.231Z,5.57
2023-01-20T11:03:54.076Z,5.80
2023-01-20T11:06:26.692Z,5.68
2023-01-20T11:08:55.687Z,6.35
2023-01-20T11:11:26.993Z,6.55
2023-01-20T11:13:57.591Z,5.93
2023-01-20T11:16:28.955Z,6.10
2023-01-20T11:18:59.574Z,5.85
2023-01-20T11:21:29.172Z,6.68
2023-01-20T11:23:58.372Z,7.03
2023-01-20T11:26:28.771Z,6.55
2023-01-20T11:29:00.125Z,6.20
2023-01-20T11:31:42.440Z,4.75
2023-01-20T11:34:24.274Z,6.50
2023-01-20T11:37:11.630Z,6.05
2023-01-20T11:39:45.580Z,6.53
2023-01-20T11:42:17.342Z,6.25
2023-01-20T11:44:47.368Z,6.65
2023-01-20T11:47:24.025Z,6.93
2023-01-20T11:50:26.475Z,6.93
2023-01-20T11:52:54.325Z,7.10
2023-01-20T11:55:24.212Z,8.55
2023-01-20T11:57:54.691Z,6.63
2023-01-20T12:00:40.620Z,6.97
2023-01-20T12:03:27.821Z,8.00
2023-01-20T12:06:01.233Z,6.35
2023-01-20T12:08:36.137Z,6.63
2023-01-20T12:11:08.399Z,7.20
2023-01-20T12:13:56.276Z,6.82
2023-01-20T12:16:28.800Z,6.07
2023-01-20T12:19:02.216Z,6.90
2023-01-20T12:21:36.461Z,6.93
2023-01-20T12:24:10.974Z,7.00
2023-01-20T12:26:38.735Z,6.90
2023-01-20T12:29:14.953Z,7.10
2023-01-20T12:31:48.876Z,7.30
2023-01-20T12:34:18.770Z,7.70
2023-01-20T12:37:04.171Z,7.78
2023-01-20T12:40:05.120Z,7.15
2023-01-20T12:42:50.523Z,7.55
2023-01-20T12:45:33.124Z,7.63
2023-01-20T12:48:15.384Z,7.93
2023-01-20T12:50:59.265Z,8.02
2023-01-20T12:53:40.686Z,7.72
2023-01-20T12:56:19.685Z,7.80
2023-01-20T12:58:57.261Z,7.30
2023-01-20T13:01:41.156Z,8.48
2023-01-20T13:04:53.465Z,7.57
2023-01-20T13:07:48.281Z,7.53
2023-01-20T13:10:28.288Z,7.00
2023-01-20T13:13:01.709Z,7.97
2023-01-20T13:15:31.221Z,8.68
2023-01-20T13:18:16.481Z,7.38
2023-01-20T13:20:46.550Z,7.45
2023-01-20T13:23:17.399Z,7.05
2023-01-20T13:25:46.865Z,6.20
2023-01-20T13:28:19.496Z,7.00
2023-01-20T13:30:51.084Z,7.80
2023-01-20T13:33:32.595Z,8.23
2023-01-20T13:36:01.154Z,7.53
2023-01-20T13:38:33.613Z,6.75
2023-01-20T13:41:06.037Z,6.85
2023-01-20T13:43:46.983Z,7.38
2023-01-20T13:46:49.545Z,6.47
2023-01-20T13:51:58.838Z,6.78
2023-01-20T13:54:57.046Z,7.57
2023-01-20T13:57:46.002Z,7.78
2023-01-20T14:00:23.763Z,6.93
2023-01-20T14:02:53.079Z,7.40
2023-01-20T14:05:27.428Z,7.85
2023-01-20T14:07:55.496Z,7.30
2023-01-20T14:10:25.706Z,8.02
2023-01-20T14:12:53.555Z,7.57
2023-01-20T14:15:40.968Z,8.45
2023-01-20T14:18:17.018Z,8.10
2023-01-20T14:20:57.908Z,7.90
2023-01-20T14:23:29.211Z,8.10
2023-01-20T14:26:21.084Z,8.35
2023-01-20T14:28:51.452Z,8.73
2023-01-20T14:31:22.197Z,8.38
2023-01-20T14:33:55.333Z,8.25
2023-01-20T14:36:24.382Z,8.05
2023-01-20T14:38:58.511Z,8.25
2023-01-20T14:41:48.447Z,8.60
2023-01-20T14:44:19.840Z,9.40
2023-01-20T14:46:49.875Z,9.25
2023-01-20T14:49:20.325Z,8.80
2023-01-20T14:51:50.436Z,8.55
2023-01-20T14:54:39.682Z,8.60
2023-01-20T14:57:30.158Z,9.15
2023-01-20T15:00:18.909Z,9.60
2023-01-20T15:03:01.403Z,8.38
2023-01-20T15:05:40.416Z,9.10
2023-01-20T15:08:24.343Z,9.68
2023-01-20T15:11:23.023Z,8.50
2023-01-20T15:14:10.146Z,8.32
2023-01-20T15:16:51.966Z,8.25
2023-01-20T15:19:31.406Z,9.25
2023-01-20T15:22:18.697Z,8.93
2023-01-20T15:24:49.440Z,8.43
2023-01-20T15:27:26.791Z,12.13
2023-01-20T15:30:04.853Z,9.50
2023-01-20T15:32:33.853Z,9.20
2023-01-20T15:35:01.650Z,8.85
2023-01-20T15:37:29.574Z,8.43
2023-01-20T15:39:58.996Z,8.82
2023-01-20T15:42:26.874Z,9.32
2023-01-20T15:44:54.709Z,8.95
2023-01-20T15:47:30.806Z,10.27
2023-01-20T15:49:58.739Z,25.38
2023-01-20T15:52:27.148Z,10.25
2023-01-20T15:54:55.075Z,8.05
2023-01-20T15:57:22.960Z,8.65
2023-01-20T15:59:50.749Z,9.23
2023-01-20T16:02:19.409Z,8.50
2023-01-20T16:04:48.716Z,8.50
2023-01-20T16:07:19.064Z,7.97
2023-01-20T16:09:47.318Z,7.63
2023-01-20T16:12:15.680Z,8.55
2023-01-20T16:14:44.252Z,8.27
2023-01-20T16:17:16.988Z,7.90
2023-01-20T16:19:45.259Z,8.40
2023-01-20T16:22:14.608Z,8.93
2023-01-20T16:24:42.430Z,8.68
2023-01-20T16:27:18.222Z,8.80
2023-01-20T16:29:47.690Z,9.60
2023-01-20T16:32:18.187Z,8.88
2023-01-20T16:34:47.200Z,8.73
2023-01-20T16:37:16.426Z,9.13
2023-01-20T16:39:44.210Z,8.85
2023-01-20T16:42:13.263Z,9.63
2023-01-20T16:44:41.613Z,10.40
2023-01-20T16:47:09.468Z,9.50
2023-01-20T16:49:38.951Z,9.43
2023-01-20T16:52:08.388Z,9.85
2023-01-20T16:54:37.505Z,9.10
2023-01-20T16:57:05.549Z,9.65
2023-01-20T16:59:33.293Z,10.18
2023-01-20T17:02:01.215Z,9.77
2023-01-20T17:04:29.463Z,10.57
2023-01-20T17:06:57.259Z,10.00
2023-01-20T17:09:25.124Z,10.27
2023-01-20T17:11:54.387Z,9.93
2023-01-20T17:14:22.176Z,10.15
2023-01-20T17:16:49.966Z,9.57
2023-01-20T17:19:17.961Z,9.80
2023-01-20T17:21:45.910Z,9.00
2023-01-20T17:24:13.732Z,9.55
2023-01-20T17:26:41.476Z,10.82
2023-01-20T17:29:11.888Z,10.68
2023-01-20T17:31:40.454Z,10.07
2023-01-20T17:34:08.470Z,10.57
2023-01-20T17:36:36.303Z,9.82
2023-01-20T17:39:05.368Z,9.88
2023-01-20T17:41:33.582Z,10.05
2023-01-20T17:44:01.465Z,10.27
2023-01-20T17:46:31.477Z,10.18
2023-01-20T17:49:00.605Z,10.75
2023-01-20T17:51:30.073Z,10.88
2023-01-20T17:53:58.779Z,11.27
2023-01-20T17:56:26.690Z,10.32
2023-01-20T17:58:55.371Z,10.35
2023-01-20T18:01:24.778Z,10.40
2023-01-20T18:03:56.314Z,10.68
2023-01-20T18:06:25.291Z,11.25
2023-01-20T18:08:55.385Z,10.23
2023-01-20T18:11:24.375Z,11.32
2023-01-20T18:13:55.086Z,10.75
2023-01-20T18:16:24.519Z,10.70
2023-01-20T18:18:58.569Z,11.73
2023-01-20T18:21:29.948Z,10.88
2023-01-20T18:23:58.759Z,10.68
2023-01-20T18:26:29.803Z,11.05
2023-01-20T18:28:59.427Z,10.60
2023-01-20T18:31:28.869Z,10.65
2023-01-20T18:34:00.390Z,11.75
2023-01-20T18:36:30.089Z,12.43
2023-01-20T18:38:59.844Z,12.32
2023-01-20T18:41:29.906Z,14.27
2023-01-20T18:43:58.147Z,14.52
2023-01-20T18:46:26.732Z,13.48
2023-01-20T18:48:55.352Z,12.65
2023-01-20T18:51:26.750Z,12.85
2023-01-20T18:53:56.565Z,13.52
2023-01-20T18:56:24.914Z,12.68
2023-01-20T18:58:54.313Z,14.20
2023-01-20T19:01:24.215Z,14.07
2023-01-20T19:03:52.462Z,13.82
2023-01-20T19:06:25.417Z,13.85
2023-01-20T19:08:53.504Z,14.43
2023-01-20T19:11:23.593Z,14.40
2023-01-20T19:13:53.472Z,14.85
2023-01-20T19:16:23.539Z,13.95
2023-01-20T19:18:53.334Z,12.80
2023-01-20T19:21:21.686Z,12.27
2023-01-20T19:23:54.053Z,12.25
2023-01-20T19:26:23.709Z,12.23
2023-01-20T19:28:57.952Z,12.50
2023-01-20T19:31:26.068Z,12.55
2023-01-20T19:33:54.011Z,13.10
2023-01-20T19:36:22.023Z,13.15
2023-01-20T19:38:52.473Z,11.93
2023-01-20T19:41:22.232Z,12.40
2023-01-20T19:43:55.413Z,11.75
2023-01-20T19:46:24.499Z,13.00
2023-01-20T19:48:52.657Z,12.27
2023-01-20T19:51:21.240Z,13.18
2023-01-20T19:53:50.168Z,13.10
2023-01-20T19:56:20.673Z,14.15
2023-01-20T19:58:49.484Z,14.07
2023-01-20T20:01:20.138Z,14.65
2023-01-20T20:03:49.290Z,14.50
2023-01-20T20:06:26.059Z,14.48
2023-01-20T20:08:57.177Z,13.90
2023-01-20T20:11:26.728Z,13.98
2023-01-20T20:13:56.523Z,12.73
2023-01-20T20:16:25.360Z,13.35
2023-01-20T20:18:53.432Z,12.32
2023-01-20T20:21:21.678Z,14.15
2023-01-20T20:23:51.205Z,13.00
2023-01-20T20:26:19.428Z,14.30
2023-01-20T20:28:48.596Z,13.52
2023-01-20T20:31:16.484Z,13.48
2023-01-20T20:33:46.110Z,14.07
2023-01-20T20:36:15.109Z,13.35
2023-01-20T20:38:43.559Z,13.70
2023-01-20T20:41:11.486Z,14.02
2023-01-20T20:43:39.461Z,13.73
2023-01-20T20:46:09.306Z,14.65
2023-01-20T20:48:37.603Z,15.35
2023-01-20T20:51:06.963Z,13.73
2023-01-20T20:53:34.835Z,13.15
2023-01-20T20:56:06.788Z,13.48
2023-01-20T20:58:34.625Z,14.30
2023-01-20T21:01:02.848Z,13.52
2023-01-20T21:03:32.704Z,14.23
2023-01-20T21:06:00.540Z,15.10
2023-01-20T21:08:28.790Z,14.73
2023-01-20T21:11:00.392Z,14.52
2023-01-20T21:13:28.235Z,16.00
2023-01-20T21:15:59.442Z,15.75
2023-01-20T21:18:27.664Z,16.05
2023-01-20T21:20:59.170Z,15.77
2023-01-20T21:23:28.283Z,17.65
2023-01-20T21:26:01.258Z,16.88
2023-01-20T21:28:29.854Z,15.63
2023-01-20T21:30:57.591Z,14.95
2023-01-20T21:33:25.395Z,13.98
2023-01-20T21:35:53.144Z,15.32
2023-01-20T21:38:22.282Z,15.15
2023-01-20T21:41:01.231Z,16.05
2023-01-20T21:43:54.769Z,15.68
2023-01-20T21:46:22.542Z,14.27
2023-01-20T21:49:07.968Z,15.68
2023-01-20T21:51:53.896Z,16.00
2023-01-20T21:54:23.248Z,15.48
2023-01-20T21:56:52.420Z,16.08
2023-01-20T21:59:20.218Z,15.45
2023-01-20T22:01:48.040Z,15.52
2023-01-20T22:04:16.173Z,14.63
2023-01-20T22:06:44.381Z,15.00
2023-01-20T22:09:12.718Z,15.38
2023-01-20T22:11:41.976Z,15.55
2023-01-20T22:14:11.105Z,15.85
2023-01-20T22:16:38.967Z,15.02
2023-01-20T22:19:06.919Z,15.73
2023-01-20T22:21:34.759Z,15.65
2023-01-20T22:24:03.568Z,16.60
2023-01-20T22:26:31.390Z,16.73
2023-01-20T22:29:00.477Z,17.75
2023-01-20T22:31:30.113Z,17.30
2023-01-20T22:33:59.987Z,17.92
2023-01-20T22:36:27.795Z,17.65
2023-01-20T22:38:55.480Z,17.55
2023-01-20T22:41:23.282Z,17.00
2023-01-20T22:43:51.870Z,16.63
2023-01-20T22:46:23.126Z,23.52
2023-01-20T22:48:50.849Z,17.98
2023-01-20T22:51:20.573Z,18.35
2023-01-20T22:53:48.794Z,17.23
2023-01-20T22:56:18.941Z,17.65
2023-01-20T22:58:47.432Z,17.38
2023-01-20T23:01:16.367Z,16.70
2023-01-20T23:03:46.981Z,15.85
2023-01-20T23:06:15.788Z,16.85
2023-01-20T23:08:43.640Z,16.60
2023-01-20T23:11:13.212Z,15.85
2023-01-20T23:13:41.473Z,16.20
2023-01-20T23:16:14.514Z,16.30
2023-01-20T23:18:42.445Z,16.20
2023-01-20T23:21:11.811Z,17.15
2023-01-20T23:23:39.864Z,17.42
2023-01-20T23:26:12.919Z,25.33
2023-01-20T23:28:40.715Z,18.05
2023-01-20T23:31:10.118Z,17.45
2023-01-20T23:33:38.114Z,18.23
2023-01-20T23:36:08.049Z,17.35
2023-01-20T23:38:37.418Z,17.80
2023-01-20T23:41:05.438Z,17.52
2023-01-20T23:43:34.968Z,17.05
2023-01-20T23:46:05.723Z,18.58
2023-01-20T23:48:34.362Z,18.80
2023-01-20T23:51:03.668Z,18.20
2023-01-20T23:53:33.535Z,19.60
2023-01-20T23:56:04.196Z,17.27
2023-01-20T23:58:32.510Z,17.58
